Time;durP1;ratioP1;P1;durP2;ratioP2;P2;SDS_P1;SDS_P2;PMS_P1;PMS_P2;Temp;Humidity;BMP_temperature;BMP_pressure;BME280_temperature;BME280_humidity;BME280_pressure;Samples;Min_cycle;Max_cycle;Signal;HPM_P1;HPM_P2
2022/06/09 00:02:22;;;;;;;8.23;5.32;;;17.60;99.90;;;;;;4974023;28;20022;-71
2022/06/09 00:04:47;;;;;;;7.95;4.28;;;17.60;99.90;;;;;;4974080;28;20031;-72
2022/06/09 00:07:15;;;;;;;7.28;4.10;;;17.50;99.90;;;;;;4971325;28;20023;-67
2022/06/09 00:09:50;;;;;;;8.40;4.57;;;17.10;99.90;;;;;;4973997;28;20030;-68
2022/06/09 00:12:16;;;;;;;17.92;7.82;;;17.10;99.90;;;;;;4975056;28;20041;-72
2022/06/09 00:14:43;;;;;;;15.70;7.63;;;17.20;99.90;;;;;;4973696;28;20031;-71
2022/06/09 00:17:09;;;;;;;10.73;6.78;;;17.20;99.90;;;;;;4974027;28;20053;-72
2022/06/09 00:19:35;;;;;;;12.90;7.05;;;17.10;99.90;;;;;;4974174;28;20031;-71
2022/06/09 00:22:01;;;;;;;12.07;6.40;;;16.90;99.90;;;;;;4973819;28;20472;-71
2022/06/09 00:24:28;;;;;;;12.98;7.18;;;17.00;99.90;;;;;;4973838;28;20073;-63
2022/06/09 00:26:54;;;;;;;12.02;6.07;;;17.10;99.90;;;;;;4973503;28;20473;-68
2022/06/09 00:29:19;;;;;;;12.13;6.25;;;17.10;99.90;;;;;;4987604;28;20035;-72
2022/06/09 00:31:45;;;;;;;10.73;5.47;;;17.10;99.90;;;;;;4973827;28;20023;-73
2022/06/09 00:34:11;;;;;;;12.00;5.10;;;17.00;99.90;;;;;;4973719;28;20114;-74
2022/06/09 00:36:37;;;;;;;13.43;5.50;;;16.70;99.90;;;;;;4973290;28;20033;-70
2022/06/09 00:39:06;;;;;;;9.93;5.28;;;16.60;99.90;;;;;;4973203;28;20038;-72
2022/06/09 00:41:42;;;;;;;9.00;4.88;;;16.60;99.90;;;;;;4973442;28;20026;-71
2022/06/09 00:44:15;;;;;;;8.35;5.03;;;16.50;99.90;;;;;;4972966;28;20771;-73
2022/06/09 00:46:42;;;;;;;15.48;5.25;;;16.40;99.90;;;;;;4973312;28;20118;-69
2022/06/09 00:49:45;;;;;;;9.27;4.75;;;16.50;99.90;;;;;;4972692;28;20081;-70
2022/06/09 00:52:14;;;;;;;;;;;16.30;99.90;;;;;;4973205;28;20027;-65
2022/06/09 00:54:44;;;;;;;8.98;4.88;;;16.30;99.90;;;;;;4971938;28;20423;-71
2022/06/09 00:57:16;;;;;;;9.88;4.78;;;16.40;99.90;;;;;;4972447;28;20018;-71
2022/06/09 00:59:45;;;;;;;9.18;4.18;;;16.50;99.90;;;;;;4972399;28;20042;-71
2022/06/09 01:02:16;;;;;;;9.38;4.75;;;16.60;99.90;;;;;;4972448;28;20034;-71
2022/06/09 01:04:43;;;;;;;7.40;3.80;;;16.70;99.90;;;;;;4968992;28;20138;-70
2022/06/09 01:07:13;;;;;;;9.70;4.85;;;16.70;99.90;;;;;;4972291;28;20023;-68
2022/06/09 01:09:39;;;;;;;8.30;3.80;;;16.70;99.90;;;;;;4972347;28;20113;-71
2022/06/09 01:12:29;;;;;;;7.18;4.43;;;16.80;99.90;;;;;;4971946;28;20019;-70
2022/06/09 01:14:59;;;;;;;11.07;4.43;;;16.80;99.90;;;;;;4971999;28;20062;-73
2022/06/09 01:17:54;;;;;;;10.70;4.82;;;16.80;99.90;;;;;;4972194;28;20030;-69
2022/06/09 01:20:31;;;;;;;8.90;4.18;;;16.80;99.90;;;;;;4969743;28;20505;-70
2022/06/09 01:23:08;;;;;;;8.27;3.85;;;16.80;99.90;;;;;;4972024;28;20066;-72
2022/06/09 01:25:56;;;;;;;8.60;4.35;;;16.80;99.90;;;;;;4971912;28;20035;-71
2022/06/09 01:28:39;;;;;;;8.07;3.70;;;16.80;99.90;;;;;;4971795;28;20117;-73
2022/06/09 01:31:27;;;;;;;8.93;3.97;;;16.80;99.90;;;;;;4969258;28;20023;-73
2022/06/09 01:34:03;;;;;;;6.00;3.60;;;16.80;99.90;;;;;;4972030;28;20106;-71
2022/06/09 01:36:44;;;;;;;9.52;4.28;;;16.90;99.90;;;;;;4972103;28;20030;-72
2022/06/09 01:39:10;;;;;;;6.03;3.50;;;16.80;99.90;;;;;;4971957;28;20031;-72
2022/06/09 01:41:35;;;;;;;6.13;3.63;;;16.90;99.90;;;;;;4971784;28;20446;-71
2022/06/09 01:44:02;;;;;;;6.57;4.05;;;16.80;99.90;;;;;;4971681;28;20398;-73
2022/06/09 01:46:34;;;;;;;9.13;3.95;;;16.90;99.90;;;;;;4971881;28;20038;-71
2022/06/09 01:49:02;;;;;;;10.83;4.43;;;16.90;99.90;;;;;;4971615;28;20030;-71
2022/06/09 01:51:33;;;;;;;7.35;4.22;;;17.00;99.90;;;;;;4971916;28;20037;-72
2022/06/09 01:54:06;;;;;;;7.88;4.25;;;16.90;99.90;;;;;;4971779;28;20049;-73
2022/06/09 01:56:34;;;;;;;9.23;4.65;;;17.00;99.90;;;;;;4971861;28;20050;-72
2022/06/09 01:59:06;;;;;;;7.85;4.53;;;17.10;99.90;;;;;;4971634;28;20042;-72
2022/06/09 02:01:40;;;;;;;8.32;4.78;;;17.00;99.90;;;;;;4969093;28;20657;-70
2022/06/09 02:04:13;;;;;;;10.45;4.90;;;16.80;99.90;;;;;;4972428;28;20034;-73
2022/06/09 02:06:41;;;;;;;12.00;5.55;;;16.80;99.90;;;;;;4971888;28;20026;-72
2022/06/09 02:09:07;;;;;;;10.90;5.30;;;16.90;99.90;;;;;;4971497;28;20369;-72
2022/06/09 02:11:44;;;;;;;8.23;4.68;;;16.90;99.90;;;;;;4971790;28;20035;-73
2022/06/09 02:14:10;;;;;;;10.55;4.70;;;16.90;99.90;;;;;;4972883;28;20131;-72
2022/06/09 02:16:35;;;;;;;10.77;5.15;;;17.00;99.90;;;;;;4973125;28;20161;-73
2022/06/09 02:19:03;;;;;;;9.85;5.00;;;17.00;99.90;;;;;;4972863;28;20035;-71
2022/06/09 02:21:34;;;;;;;11.27;5.75;;;16.90;99.90;;;;;;4972699;28;20022;-71
2022/06/09 02:24:00;;;;;;;9.55;5.15;;;16.90;99.90;;;;;;4971973;28;20022;-69
2022/06/09 02:26:27;;;;;;;16.50;5.57;;;16.90;99.90;;;;;;4973082;28;20019;-72
2022/06/09 02:28:53;;;;;;;7.88;4.80;;;16.90;99.90;;;;;;4972748;28;20110;-74
2022/06/09 02:31:20;;;;;;;11.82;6.15;;;16.90;99.90;;;;;;4972421;28;20026;-69
2022/06/09 02:33:47;;;;;;;10.55;4.70;;;16.90;99.90;;;;;;4955081;28;20047;-73
2022/06/09 02:36:13;;;;;;;9.45;4.72;;;16.90;99.90;;;;;;4973100;28;20082;-71
2022/06/09 02:38:39;;;;;;;11.73;5.68;;;16.90;99.90;;;;;;4972543;28;20035;-68
2022/06/09 02:41:04;;;;;;;7.78;4.88;;;16.70;99.90;;;;;;4972821;28;20023;-73
2022/06/09 02:43:31;;;;;;;12.60;5.72;;;16.60;99.90;;;;;;4972371;28;20497;-74
2022/06/09 02:45:57;;;;;;;9.60;4.45;;;16.50;99.90;;;;;;4966937;28;20063;-69
2022/06/09 02:48:23;;;;;;;10.18;5.70;;;16.50;99.90;;;;;;4972745;28;20027;-73
2022/06/09 02:50:51;;;;;;;11.13;6.18;;;16.50;99.90;;;;;;4972924;28;20054;-72
2022/06/09 02:53:17;;;;;;;12.93;6.35;;;16.50;99.90;;;;;;4972730;28;20035;-73
2022/06/09 02:55:43;;;;;;;12.43;6.47;;;16.50;99.90;;;;;;4965910;28;20107;-70
2022/06/09 02:58:09;;;;;;;15.43;6.93;;;16.40;99.90;;;;;;4970658;28;20382;-72
2022/06/09 03:00:35;;;;;;;15.93;6.88;;;16.30;99.90;;;;;;4968719;28;20041;-71
2022/06/09 03:03:05;;;;;;;15.80;6.72;;;16.30;99.90;;;;;;4976302;28;20078;-72
2022/06/09 03:05:33;;;;;;;13.05;6.97;;;16.40;99.90;;;;;;4968491;28;20061;-70
2022/06/09 03:07:59;;;;;;;12.77;6.85;;;16.40;99.90;;;;;;4971975;28;20022;-73
2022/06/09 03:10:25;;;;;;;11.10;7.30;;;16.50;99.90;;;;;;4975378;28;20039;-70
2022/06/09 03:12:53;;;;;;;13.75;7.32;;;16.50;99.90;;;;;;4974501;28;20027;-70
2022/06/09 03:15:22;;;;;;;18.52;7.70;;;16.40;99.90;;;;;;4966562;28;20059;-73
2022/06/09 03:17:49;;;;;;;13.68;7.35;;;16.40;99.90;;;;;;4974286;28;20043;-73
2022/06/09 03:20:19;;;;;;;13.45;6.80;;;16.40;99.90;;;;;;4969774;28;20182;-73
2022/06/09 03:22:45;;;;;;;14.65;6.68;;;16.60;99.90;;;;;;4962395;28;20027;-74
2022/06/09 03:25:11;;;;;;;13.52;7.22;;;16.60;99.90;;;;;;4968007;28;20081;-67
2022/06/09 03:27:39;;;;;;;11.30;6.43;;;16.80;99.90;;;;;;4970237;28;20023;-72
2022/06/09 03:30:05;;;;;;;13.57;6.95;;;16.90;99.90;;;;;;4965373;28;20027;-69
2022/06/09 03:32:32;;;;;;;13.20;6.85;;;17.00;99.90;;;;;;4974871;28;20105;-71
2022/06/09 03:34:58;;;;;;;12.30;6.45;;;17.20;99.90;;;;;;4966121;28;20038;-74
2022/06/09 03:37:24;;;;;;;11.82;6.80;;;17.40;99.90;;;;;;4970376;28;20027;-71
2022/06/09 03:39:50;;;;;;;15.73;7.38;;;17.60;99.90;;;;;;4969394;28;20035;-75
2022/06/09 03:42:16;;;;;;;10.25;6.57;;;18.00;99.90;;;;;;4965572;28;20474;-78
2022/06/09 03:44:42;;;;;;;16.95;5.95;;;18.80;99.90;;;;;;4973296;28;20125;-72
2022/06/09 03:47:10;;;;;;;13.68;6.65;;;19.40;99.90;;;;;;4975634;28;20431;-72
2022/06/09 03:49:36;;;;;;;10.45;6.05;;;20.30;99.90;;;;;;4963616;28;20084;-68
2022/06/09 03:52:03;;;;;;;9.52;5.53;;;21.40;99.90;;;;;;4974204;28;20035;-76
2022/06/09 03:54:29;;;;;;;10.18;6.00;;;22.30;99.90;;;;;;4974902;28;20044;-69
2022/06/09 03:56:54;;;;;;;11.13;6.22;;;23.00;99.90;;;;;;4970684;28;20062;-72
2022/06/09 03:59:20;;;;;;;10.70;5.93;;;23.70;99.90;;;;;;4968400;28;20053;-75
2022/06/09 04:01:46;;;;;;;11.10;6.10;;;23.60;99.90;;;;;;4969138;28;20110;-68
2022/06/09 04:04:12;;;;;;;9.05;5.05;;;24.10;99.90;;;;;;4973129;28;20062;-71
2022/06/09 04:06:38;;;;;;;9.82;5.35;;;23.90;99.90;;;;;;4960068;28;20726;-71
2022/06/09 04:09:05;;;;;;;8.55;4.90;;;24.10;99.90;;;;;;4964523;28;20077;-71
2022/06/09 04:11:32;;;;;;;11.40;5.22;;;24.20;99.90;;;;;;4969850;28;20599;-72
2022/06/09 04:13:59;;;;;;;12.70;5.30;;;25.30;99.90;;;;;;4966395;28;20026;-74
2022/06/09 04:16:34;;;;;;;9.13;5.05;;;25.20;99.90;;;;;;4971493;28;20042;-74
2022/06/09 04:19:03;;;;;;;10.35;5.80;;;25.40;99.20;;;;;;4961178;28;20031;-73
2022/06/09 04:21:30;;;;;;;11.10;5.78;;;25.60;99.90;;;;;;4972090;28;20034;-74
2022/06/09 04:23:57;;;;;;;10.48;5.15;;;26.20;98.00;;;;;;4967707;28;20061;-73
2022/06/09 04:26:28;;;;;;;10.18;5.57;;;24.80;98.70;;;;;;4971700;28;20041;-73
2022/06/09 04:28:54;;;;;;;9.20;5.25;;;24.50;99.90;;;;;;4973636;28;20473;-72
2022/06/09 04:31:21;;;;;;;11.07;5.78;;;24.50;99.90;;;;;;4973750;28;20091;-71
2022/06/09 04:33:48;;;;;;;9.68;5.40;;;24.20;99.90;;;;;;4956287;28;20051;-70
2022/06/09 04:36:15;;;;;;;11.35;5.93;;;23.50;99.90;;;;;;4974005;28;20023;-73
2022/06/09 04:38:42;;;;;;;8.88;5.07;;;23.00;99.90;;;;;;4974713;28;20031;-73
2022/06/09 04:41:09;;;;;;;13.38;5.28;;;22.90;99.90;;;;;;4973244;28;20440;-73
2022/06/09 04:43:39;;;;;;;10.82;5.75;;;22.60;99.90;;;;;;4973807;28;20101;-74
2022/06/09 04:46:07;;;;;;;12.07;6.07;;;22.40;99.90;;;;;;4970037;28;20114;-73
2022/06/09 04:48:35;;;;;;;11.68;5.95;;;22.50;99.90;;;;;;4969746;28;20377;-74
2022/06/09 04:51:01;;;;;;;11.68;6.40;;;22.60;99.90;;;;;;4973220;28;20484;-74
2022/06/09 04:53:27;;;;;;;8.82;5.20;;;23.00;99.90;;;;;;4963523;28;20488;-72
2022/06/09 04:55:53;;;;;;;9.85;5.40;;;22.60;99.90;;;;;;4974135;28;20030;-73
2022/06/09 04:58:19;;;;;;;11.57;6.95;;;22.40;99.90;;;;;;4973395;28;20380;-73
2022/06/09 05:00:44;;;;;;;9.48;5.70;;;22.30;99.90;;;;;;4973071;28;20043;-74
2022/06/09 05:03:13;;;;;;;10.40;5.75;;;22.20;99.90;;;;;;4972043;28;20115;-73
2022/06/09 05:05:43;;;;;;;10.40;5.80;;;22.10;99.90;;;;;;4973791;28;20034;-73
2022/06/09 05:08:11;;;;;;;13.38;6.25;;;21.90;99.90;;;;;;4968223;28;20031;-73
2022/06/09 05:10:38;;;;;;;14.13;6.03;;;21.80;99.90;;;;;;4962492;28;20039;-74
2022/06/09 05:13:06;;;;;;;12.00;6.65;;;21.90;99.90;;;;;;4970893;28;20031;-73
2022/06/09 05:15:35;;;;;;;11.57;6.57;;;21.80;99.90;;;;;;4967278;28;20081;-73
2022/06/09 05:18:01;;;;;;;13.05;6.97;;;21.60;99.90;;;;;;4971031;28;20114;-73
2022/06/09 05:20:28;;;;;;;11.90;6.28;;;21.70;99.90;;;;;;4971653;28;20058;-73
2022/06/09 05:22:54;;;;;;;10.52;5.85;;;21.60;99.90;;;;;;4970662;28;20452;-74
2022/06/09 05:25:20;;;;;;;27.27;6.32;;;21.30;99.90;;;;;;4966866;28;20106;-73
2022/06/09 05:27:46;;;;;;;14.85;8.20;;;21.10;99.90;;;;;;4971514;28;20105;-74
2022/06/09 05:30:17;;;;;;;12.80;6.70;;;21.20;99.90;;;;;;4973325;28;20023;-75
2022/06/09 05:32:44;;;;;;;13.68;7.10;;;21.00;99.90;;;;;;4969625;28;20019;-73
2022/06/09 05:35:10;;;;;;;15.38;7.25;;;21.00;99.90;;;;;;4973091;28;20462;-74
2022/06/09 05:45:51;;;;;;;10.35;6.25;;;20.50;99.90;;;;;;4968580;28;20122;-74
2022/06/09 05:48:18;;;;;;;13.85;7.07;;;20.50;99.90;;;;;;4972187;28;20117;-73
2022/06/09 05:50:44;;;;;;;16.73;9.18;;;20.60;99.90;;;;;;4964897;28;20045;-73
2022/06/09 05:53:10;;;;;;;16.77;7.72;;;20.60;99.90;;;;;;4965263;28;20425;-72
2022/06/09 05:55:36;;;;;;;18.38;8.10;;;20.60;99.90;;;;;;4968259;28;20045;-73
2022/06/09 05:58:01;;;;;;;13.93;7.80;;;20.70;99.90;;;;;;4972715;28;20030;-73
2022/06/09 06:00:27;;;;;;;14.88;7.88;;;20.70;99.90;;;;;;4966477;28;20486;-73
2022/06/09 06:02:53;;;;;;;15.43;7.22;;;20.80;99.90;;;;;;4959712;28;20039;-73
2022/06/09 06:08:03;;;;;;;15.00;7.13;;;20.60;99.90;;;;;;4970001;28;20106;-73
2022/06/09 06:10:29;;;;;;;13.48;6.43;;;20.70;99.90;;;;;;4968117;28;20089;-73
2022/06/09 06:12:55;;;;;;;10.85;5.82;;;20.90;99.90;;;;;;4968820;28;20481;-74
2022/06/09 06:15:21;;;;;;;12.43;6.88;;;21.00;99.90;;;;;;4971357;28;20027;-74
2022/06/09 06:17:47;;;;;;;14.50;6.82;;;21.00;99.90;;;;;;4963760;28;20122;-74
2022/06/09 06:20:13;;;;;;;13.27;6.93;;;21.10;99.90;;;;;;4970221;28;20038;-73
2022/06/09 06:22:38;;;;;;;13.23;6.88;;;21.30;99.90;;;;;;4965122;28;20138;-74
2022/06/09 06:25:06;;;;;;;13.18;6.15;;;21.40;99.90;;;;;;4967498;28;20034;-74
2022/06/09 06:27:32;;;;;;;16.42;7.47;;;21.70;99.90;;;;;;4972488;28;20023;-73
2022/06/09 06:30:00;;;;;;;11.82;6.00;;;21.70;99.90;;;;;;4965137;28;20089;-73
2022/06/09 06:32:25;;;;;;;12.73;6.60;;;21.90;99.90;;;;;;4969162;28;20023;-74
2022/06/09 06:34:51;;;;;;;12.40;6.60;;;21.90;99.90;;;;;;4972348;28;20492;-73
2022/06/09 06:37:17;;;;;;;12.68;6.50;;;22.40;99.90;;;;;;4974322;28;20035;-73
2022/06/09 06:39:43;;;;;;;9.82;5.68;;;23.10;99.90;;;;;;4974533;28;20041;-73
2022/06/09 06:42:09;;;;;;;10.20;6.15;;;23.10;99.90;;;;;;4973663;28;20085;-74
2022/06/09 06:44:41;;;;;;;11.70;6.72;;;22.70;99.90;;;;;;4989859;28;20066;-72
2022/06/09 06:47:07;;;;;;;9.73;5.82;;;23.10;99.90;;;;;;4976394;28;20027;-74
2022/06/09 06:49:32;;;;;;;11.48;6.50;;;23.10;99.90;;;;;;4976188;28;20026;-74
2022/06/09 06:51:58;;;;;;;10.25;5.75;;;23.50;99.90;;;;;;4972483;28;20493;-73
2022/06/09 06:54:24;;;;;;;11.25;6.20;;;23.10;99.90;;;;;;4970314;28;20485;-73
2022/06/09 06:56:50;;;;;;;10.60;5.68;;;23.40;99.90;;;;;;4973749;28;20031;-73
2022/06/09 06:59:16;;;;;;;10.88;5.40;;;23.80;99.90;;;;;;4968306;28;20035;-73
2022/06/09 07:01:42;;;;;;;9.85;5.80;;;23.90;99.90;;;;;;4974883;28;20027;-74
2022/06/09 07:04:07;;;;;;;13.65;6.57;;;24.00;99.90;;;;;;4971947;28;20500;-72
2022/06/09 07:06:33;;;;;;;11.10;5.50;;;24.30;99.90;;;;;;4969021;28;20065;-73
2022/06/09 07:08:59;;;;;;;9.52;6.22;;;24.50;99.90;;;;;;4966464;28;20030;-68
2022/06/09 07:11:25;;;;;;;12.52;5.50;;;24.80;99.90;;;;;;4972213;28;20117;-64
2022/06/09 07:13:51;;;;;;;10.52;5.93;;;25.00;99.90;;;;;;4966426;28;20098;-63
2022/06/09 07:16:17;;;;;;;12.05;5.32;;;25.00;99.90;;;;;;4969426;28;20101;-67
2022/06/09 07:18:42;;;;;;;7.03;4.40;;;25.30;99.90;;;;;;4974524;28;20027;-76
2022/06/09 07:21:09;;;;;;;10.32;4.80;;;25.60;99.90;;;;;;4973895;28;20047;-72
2022/06/09 07:23:38;;;;;;;12.95;5.80;;;25.40;99.90;;;;;;4970336;28;20027;-72
2022/06/09 07:26:05;;;;;;;9.13;4.53;;;24.60;99.90;;;;;;4972411;28;20022;-65
2022/06/09 07:28:31;;;;;;;9.70;4.50;;;24.10;99.90;;;;;;4974858;28;20027;-66
2022/06/09 07:30:59;;;;;;;9.68;4.45;;;24.30;99.90;;;;;;4973862;28;20019;-76
2022/06/09 07:33:29;;;;;;;11.10;5.65;;;24.60;99.90;;;;;;4974757;28;20023;-73
2022/06/09 07:35:56;;;;;;;10.00;5.75;;;23.90;99.90;;;;;;4972819;28;20019;-73
2022/06/09 07:38:23;;;;;;;10.48;5.97;;;23.40;99.90;;;;;;4974503;28;20628;-74
2022/06/09 07:40:50;;;;;;;10.73;5.50;;;23.60;99.90;;;;;;4974329;28;20050;-71
2022/06/09 07:43:16;;;;;;;12.32;5.65;;;24.10;99.90;;;;;;4972110;28;20093;-72
2022/06/09 07:45:42;;;;;;;9.45;5.50;;;24.00;99.90;;;;;;4968266;28;20031;-69
2022/06/09 07:48:09;;;;;;;11.45;5.38;;;23.90;99.90;;;;;;4974638;28;20023;-72
2022/06/09 07:50:35;;;;;;;11.60;5.50;;;24.40;99.90;;;;;;4970392;28;20385;-73
2022/06/09 07:53:02;;;;;;;9.60;5.05;;;24.30;99.90;;;;;;4973192;28;20035;-71
2022/06/09 07:55:28;;;;;;;10.43;5.28;;;24.50;99.90;;;;;;4967887;28;20027;-73
2022/06/09 07:57:55;;;;;;;9.52;5.18;;;24.60;99.90;;;;;;4970673;28;20031;-72
2022/06/09 08:00:22;;;;;;;11.55;5.38;;;24.60;99.90;;;;;;4974152;28;20520;-72
2022/06/09 08:02:49;;;;;;;9.73;5.03;;;24.50;99.90;;;;;;4973897;28;20030;-73
2022/06/09 08:05:17;;;;;;;12.00;6.43;;;24.80;99.90;;;;;;4963422;28;20031;-73
2022/06/09 08:07:43;;;;;;;10.63;5.22;;;24.60;99.90;;;;;;4974786;28;20358;-73
2022/06/09 08:10:14;;;;;;;8.05;4.97;;;24.80;99.90;;;;;;4971189;28;20880;-72
2022/06/09 08:12:40;;;;;;;12.48;6.05;;;24.30;99.90;;;;;;4973415;28;20038;-72
2022/06/09 08:15:06;;;;;;;10.15;5.78;;;24.40;99.90;;;;;;4973787;28;20683;-71
2022/06/09 08:17:32;;;;;;;12.10;4.90;;;24.70;99.90;;;;;;4969205;28;20042;-73
2022/06/09 08:19:57;;;;;;;8.18;5.10;;;24.50;99.90;;;;;;4972068;28;20038;-72
2022/06/09 08:22:23;;;;;;;9.55;4.72;;;24.80;99.90;;;;;;4962830;28;20031;-68
2022/06/09 08:24:49;;;;;;;13.55;4.85;;;23.90;98.70;;;;;;4970093;28;20421;-73
2022/06/09 08:27:15;;;;;;;7.63;4.60;;;24.50;99.90;;;;;;4973312;28;20037;-73
2022/06/09 08:29:41;;;;;;;8.75;4.60;;;25.10;99.90;;;;;;4972225;28;20027;-73
2022/06/09 08:32:07;;;;;;;7.15;4.43;;;25.40;99.20;;;;;;4971560;28;20054;-72
2022/06/09 08:34:33;;;;;;;8.95;4.60;;;25.30;98.70;;;;;;4969227;28;20117;-72
2022/06/09 08:36:59;;;;;;;12.82;4.65;;;25.40;99.00;;;;;;4974052;28;20027;-72
2022/06/09 08:39:25;;;;;;;9.48;4.32;;;25.40;98.80;;;;;;4959706;28;20117;-72
2022/06/09 08:41:57;;;;;;;7.88;4.07;;;25.70;95.80;;;;;;4968417;28;20035;-73
2022/06/09 08:44:38;;;;;;;8.43;4.43;;;25.70;95.50;;;;;;4965043;28;20135;-71
2022/06/09 08:47:19;;;;;;;7.18;4.00;;;25.80;95.00;;;;;;4973636;28;20039;-72
2022/06/09 08:49:49;;;;;;;7.80;4.30;;;25.90;96.30;;;;;;4965686;28;20082;-72
2022/06/09 08:52:43;;;;;;;10.60;4.97;;;25.40;99.60;;;;;;4970434;28;20027;-72
2022/06/09 08:55:40;;;;;;;7.28;4.28;;;25.20;98.90;;;;;;4965525;28;20019;-73
2022/06/09 08:58:15;;;;;;;7.18;4.40;;;25.40;99.30;;;;;;4968077;28;20031;-72
2022/06/09 09:00:50;;;;;;;6.07;4.07;;;25.30;98.80;;;;;;4975652;28;20052;-67
2022/06/09 09:03:22;;;;;;;5.68;3.45;;;25.30;99.90;;;;;;4962217;28;20027;-73
2022/06/09 09:05:58;;;;;;;6.03;3.72;;;25.60;98.40;;;;;;4967255;28;20037;-70
2022/06/09 09:08:25;;;;;;;6.88;3.58;;;25.20;96.30;;;;;;4970410;28;20520;-73
2022/06/09 09:11:05;;;;;;;8.05;3.85;;;25.50;98.80;;;;;;4975008;28;20030;-73
2022/06/09 09:13:54;;;;;;;6.97;3.85;;;25.90;97.60;;;;;;4976165;28;20030;-73
2022/06/09 09:16:27;;;;;;;5.18;3.63;;;25.50;98.50;;;;;;4973300;28;20050;-72
2022/06/09 09:19:16;;;;;;;7.50;3.83;;;25.80;96.90;;;;;;4966697;28;20424;-67
2022/06/09 09:21:54;;;;;;;6.20;3.95;;;;;;;;;;4968166;28;20058;-69
2022/06/09 09:24:41;;;;;;;6.78;3.70;;;25.40;94.20;;;;;;4972035;28;20026;-73
2022/06/09 09:27:31;;;;;;;8.05;4.00;;;25.60;94.90;;;;;;4971537;28;20033;-72
2022/06/09 09:30:12;;;;;;;5.93;3.42;;;26.10;93.50;;;;;;4971432;28;20023;-72
2022/06/09 09:32:42;;;;;;;6.35;3.60;;;;;;;;;;4954348;28;20062;-73
2022/06/09 09:35:33;;;;;;;6.05;3.10;;;26.20;88.30;;;;;;4968482;28;20033;-72
2022/06/09 09:38:00;;;;;;;5.40;3.97;;;26.80;91.00;;;;;;4970250;28;20043;-72
2022/06/09 09:40:37;;;;;;;4.90;3.17;;;;;;;;;;4971193;28;20477;-74
2022/06/09 09:43:19;;;;;;;4.22;3.15;;;27.00;93.00;;;;;;4972646;28;20179;-69
2022/06/09 09:45:49;;;;;;;6.55;3.72;;;27.20;87.10;;;;;;4968859;28;20580;-73
2022/06/09 09:48:18;;;;;;;6.75;3.45;;;27.20;90.30;;;;;;4971201;28;20073;-72
2022/06/09 09:51:11;;;;;;;7.07;3.80;;;27.50;87.20;;;;;;4970983;28;20019;-74
2022/06/09 09:53:39;;;;;;;5.10;3.53;;;26.90;89.50;;;;;;4971837;28;20077;-72
2022/06/09 09:56:26;;;;;;;5.85;3.47;;;27.30;89.50;;;;;;4972476;28;20034;-70
2022/06/09 09:58:58;;;;;;;4.40;2.90;;;26.50;89.50;;;;;;4972858;28;20042;-72
2022/06/09 10:01:30;;;;;;;6.57;3.35;;;26.40;88.20;;;;;;4972943;28;20045;-70
2022/06/09 10:09:46;;;;;;;4.93;3.45;;;26.50;89.60;;;;;;4973860;28;20409;-72
2022/06/09 10:12:18;;;;;;;8.75;4.28;;;26.80;91.30;;;;;;4976759;28;20097;-74
2022/06/09 10:14:53;;;;;;;7.45;4.43;;;26.70;91.10;;;;;;4977052;28;20093;-72
2022/06/09 10:17:39;;;;;;;13.15;4.03;;;26.20;91.00;;;;;;4976959;28;20118;-73
2022/06/09 10:20:14;;;;;;;7.10;3.33;;;26.40;91.40;;;;;;4976289;28;20057;-72
2022/06/09 10:22:44;;;;;;;5.47;3.83;;;26.30;90.50;;;;;;4976791;28;20023;-71
2022/06/09 10:25:13;;;;;;;4.40;3.38;;;26.20;91.30;;;;;;4976049;28;20054;-72
2022/06/09 10:27:41;;;;;;;5.32;3.22;;;26.60;92.10;;;;;;4976298;28;20128;-73
2022/06/09 10:30:16;;;;;;;7.20;3.72;;;25.90;88.90;;;;;;4976779;28;20051;-73
2022/06/09 10:32:58;;;;;;;6.22;3.63;;;26.10;91.60;;;;;;4976407;28;20034;-72
2022/06/09 10:35:32;;;;;;;;;;;26.30;90.40;;;;;;4977401;28;20494;-73
2022/06/09 10:38:20;;;;;;;7.07;2.95;;;26.20;90.30;;;;;;4976420;28;19914;-73
2022/06/09 10:40:54;;;;;;;5.82;3.03;;;26.70;85.80;;;;;;4976427;28;20181;-71
2022/06/09 10:43:32;;;;;;;5.25;2.65;;;26.70;86.50;;;;;;4976204;28;20082;-73
2022/06/09 10:46:11;;;;;;;4.22;3.22;;;27.00;90.40;;;;;;4976744;28;20385;-67
2022/06/09 10:55:15;;;;;;;5.47;2.22;;;27.00;87.00;;;;;;4976295;28;20031;-71
2022/06/09 10:57:47;;;;;;;4.43;2.85;;;27.30;86.50;;;;;;4935284;29;20046;-71
2022/06/09 11:00:23;;;;;;;4.47;2.97;;;27.70;82.30;;;;;;4935378;29;20039;-72
2022/06/09 11:02:54;;;;;;;5.97;2.60;;;27.80;77.60;;;;;;4935293;29;20044;-71
2022/06/09 11:05:49;;;;;;;3.70;1.75;;;28.00;79.00;;;;;;4939101;29;20058;-71
2022/06/09 11:08:47;;;;;;;1.40;1.20;;;28.20;76.70;;;;;;4954075;29;20066;-72
2022/06/09 11:11:31;;;;;;;3.55;1.63;;;27.90;69.30;;;;;;4859753;29;20049;-73
2022/06/09 11:14:13;;;;;;;1.40;1.20;;;28.10;72.40;;;;;;4855956;29;20086;-72
2022/06/09 11:16:39;;;;;;;3.47;1.48;;;28.10;68.50;;;;;;4862363;29;20476;-72
2022/06/09 11:19:44;;;;;;;1.30;1.20;;;28.00;69.70;;;;;;4858830;29;20112;-73
2022/06/09 11:22:12;;;;;;;2.53;2.08;;;27.90;73.00;;;;;;4858483;29;20555;-72
2022/06/09 11:24:49;;;;;;;2.85;1.80;;;27.70;71.10;;;;;;4859752;29;20489;-73
2022/06/09 11:28:03;;;;;;;4.35;2.78;;;27.50;71.20;;;;;;4859479;29;20528;-73
2022/06/09 11:31:12;;;;;;;3.63;2.10;;;26.80;71.90;;;;;;4874972;29;20154;-72
2022/06/09 11:33:56;;;;;;;2.53;1.83;;;27.20;79.60;;;;;;4881161;29;20041;-73
2022/06/09 11:36:36;;;;;;;2.97;1.77;;;27.30;75.40;;;;;;4896789;29;20046;-72
2022/06/09 11:39:19;;;;;;;4.55;2.35;;;27.30;76.50;;;;;;4894850;29;20048;-73
2022/06/09 11:42:03;;;;;;;3.80;1.80;;;27.50;74.70;;;;;;4896435;29;20525;-72
2022/06/09 11:44:35;;;;;;;3.75;1.83;;;27.40;75.10;;;;;;4896457;29;20414;-73
2022/06/09 11:47:19;;;;;;;3.58;1.73;;;27.50;76.10;;;;;;4901186;28;20041;-73
2022/06/09 11:49:55;;;;;;;4.65;1.92;;;27.40;75.90;;;;;;4974157;28;20027;-73
2022/06/09 11:52:40;;;;;;;5.55;2.22;;;27.20;77.30;;;;;;4989298;28;20412;-73
2022/06/09 11:58:34;;;;;;;3.00;1.70;;;27.30;76.60;;;;;;4975012;28;20026;-72
2022/06/09 12:01:30;;;;;;;3.55;1.58;;;27.70;80.20;;;;;;4975080;28;20057;-73
2022/06/09 12:04:12;;;;;;;3.10;1.55;;;27.30;78.40;;;;;;4974867;28;20034;-72
2022/06/09 12:06:40;;;;;;;;;;;27.60;81.90;;;;;;4975078;28;20034;-73
2022/06/09 12:09:18;;;;;;;4.65;1.42;;;27.60;80.60;;;;;;4974613;28;19906;-73
2022/06/09 12:11:51;;;;;;;2.33;1.83;;;27.60;78.90;;;;;;4974879;28;20029;-74
2022/06/09 12:14:37;;;;;;;2.90;1.50;;;27.70;78.40;;;;;;4974936;28;20336;-72
2022/06/09 12:17:17;;;;;;;2.50;1.70;;;27.90;80.80;;;;;;4974159;28;20027;-73
2022/06/09 12:19:54;;;;;;;3.95;1.75;;;27.30;78.60;;;;;;4974357;28;20047;-69
2022/06/09 12:22:42;;;;;;;3.58;1.65;;;27.30;80.00;;;;;;4975167;28;20050;-71
2022/06/09 12:25:09;;;;;;;4.43;1.73;;;27.40;82.00;;;;;;4971386;28;20097;-76
2022/06/09 12:27:35;;;;;;;3.92;1.98;;;27.30;77.50;;;;;;4974517;28;20022;-72
2022/06/09 12:30:01;;;;;;;6.28;1.90;;;27.40;73.40;;;;;;4974603;28;20393;-63
2022/06/09 12:33:09;;;;;;;6.30;2.38;;;27.80;82.50;;;;;;4974635;28;20034;-64
2022/06/09 12:35:39;;;;;;;4.97;2.03;;;;;;;;;;4974126;28;20035;-63
2022/06/09 12:38:29;;;;;;;2.90;1.77;;;27.80;73.60;;;;;;4974518;28;20022;-63
2022/06/09 12:41:02;;;;;;;1.88;1.50;;;27.90;75.00;;;;;;4974246;28;20031;-70
2022/06/09 12:43:38;;;;;;;3.25;1.65;;;28.00;75.60;;;;;;4974003;28;20054;-71
2022/06/09 12:46:29;;;;;;;3.60;1.83;;;28.00;76.20;;;;;;4973548;28;20389;-63
2022/06/09 12:48:56;;;;;;;6.38;2.30;;;27.50;71.90;;;;;;4973083;28;20429;-70
2022/06/09 12:51:33;;;;;;;3.70;1.90;;;27.40;72.40;;;;;;4973747;28;20142;-63
2022/06/09 12:54:05;;;;;;;4.63;2.10;;;27.50;73.90;;;;;;4973872;28;20038;-71
2022/06/09 12:56:45;;;;;;;5.10;2.00;;;27.60;73.40;;;;;;4974132;28;20062;-72
2022/06/09 12:59:36;;;;;;;4.55;2.55;;;27.10;71.90;;;;;;4973737;28;20034;-67
2022/06/09 13:02:11;;;;;;;3.33;1.98;;;27.60;74.60;;;;;;4974221;28;20081;-73
2022/06/09 13:04:48;;;;;;;2.67;1.88;;;27.50;72.00;;;;;;4973992;28;20069;-73
2022/06/09 13:07:30;;;;;;;3.38;1.85;;;27.60;72.80;;;;;;4973531;28;20113;-72
2022/06/09 13:10:17;;;;;;;5.95;2.03;;;27.60;73.20;;;;;;4973519;28;20050;-71
2022/06/09 13:12:50;;;;;;;5.45;2.25;;;27.10;73.20;;;;;;4973089;28;20085;-69
2022/06/09 13:15:37;;;;;;;4.88;2.17;;;27.00;73.70;;;;;;4973739;28;20037;-70
2022/06/09 13:18:24;;;;;;;3.90;2.15;;;27.10;74.60;;;;;;4973684;28;20033;-73
2022/06/09 13:21:00;;;;;;;3.65;2.10;;;27.50;75.40;;;;;;4972449;28;20042;-73
2022/06/09 13:23:29;;;;;;;2.35;1.83;;;27.30;72.60;;;;;;4975087;28;20117;-73
2022/06/09 13:25:55;;;;;;;4.10;1.70;;;27.50;73.70;;;;;;4975848;28;20022;-73
2022/06/09 13:28:29;;;;;;;3.95;1.88;;;27.20;72.50;;;;;;4976063;28;20033;-70
2022/06/09 13:30:56;;;;;;;6.43;2.30;;;27.60;73.60;;;;;;4973070;28;20034;-74
2022/06/09 13:33:56;;;;;;;4.28;2.00;;;27.50;70.60;;;;;;4972113;28;20035;-74
2022/06/09 13:36:35;;;;;;;3.97;2.30;;;27.70;73.30;;;;;;4972233;28;20031;-71